Addison Township, Michigan
Current Conditions -  °F | °C
As of 12:14 AM on Saturday 20 Dec 2014 (Local Time) from KD95 Reporting Station
Clear Clear  
Wind Chill: 17°   Ceiling: Unl
Heat Index: 17°   Visibility: 10mi
Dew Point: 15°   Wind: 0mph
Humidity: 95%   Direction: NA
Pressure: 30.27"   Gusts: NA
Location:  42.8434°N, 83.1398°W
Report Text: KD95 200514Z AUTO 00000KT 10SM CLR M08/M09 A3027 RMK AO2 T10851092
Loading
Personal Weather Stations






























Interactive Weather Map New forecast layout! Learn more

10-Day Weather Forecast

Advertisements
Track Severe Weather on mobile